DW7126 Lourinha PT current weather conditions

sailwx.info

Wind from 088

Air temperature 13.3° C
Dewpoint 12.1° C

Last reported at 2014-Nov-22 01:45 UTC.
Time now 2014-Nov-22 03:03 UTC

Location: N 39°14' W 009°18'.
View on Google Maps.

See reports from other nearby stations

  
Tides and Currents Weather Stations Pressure Air Temp Water Temp Dewpoint Dewpoint Depression Visibility Wind Speed Wind Dir Waves Ship Positions
date/time (UTC)wind fromknots sea level pressurealtimeterstation pressurevisibilityair tempwater tempwave heightnotes
2014-Nov-22 01:45 088 13.3
2014-Nov-22 01:30 116 13.9
2014-Nov-22 01:15 090 14.4
2014-Nov-22 01:05 090 14.4
2014-Nov-22 00:55 090 15.0
2014-Nov-22 00:50 090 15.0
2014-Nov-22 00:45 090 15.0
2014-Nov-22 00:40 090 15.0
2014-Nov-22 00:35 090 15.0
2014-Nov-22 00:30 090 15.0
2014-Nov-22 00:25 090 15.0
2014-Nov-22 00:20 090 15.0
2014-Nov-22 00:15 090 15.0
2014-Nov-22 00:10 090 15.6
2014-Nov-22 00:05 090 15.6
2014-Nov-22 00:00 090 16.1
2014-Nov-21 23:55 143 0 gusting 6 16.1
2014-Nov-21 23:50 105 4 gusting 6 16.1
2014-Nov-21 23:45 128 3 gusting 6 15.6
2014-Nov-21 23:30 101 2 gusting 7 15.6
2014-Nov-21 23:15 114 15.0
2014-Nov-21 23:00 113 15.0
2014-Nov-21 22:55 106 15.0
2014-Nov-21 22:50 105 0 gusting 4 15.0
2014-Nov-21 22:45 105 15.0
2014-Nov-21 22:40 085 15.6
2014-Nov-21 22:35 086 0 gusting 6 15.6
2014-Nov-21 22:30 086 3 gusting 9 16.1
2014-Nov-21 22:25 119 4 gusting 11 16.1
2014-Nov-21 22:20 094 6 gusting 11 16.1
2014-Nov-21 22:15 113 7 gusting 11 16.1
2014-Nov-21 22:10 092 7 gusting 11 16.1
2014-Nov-21 22:05 115 7 gusting 11 16.1
2014-Nov-21 22:00 096 7 gusting 11 16.1
2014-Nov-21 21:55 094 6 gusting 9 16.1
2014-Nov-21 21:50 114 6 gusting 9 16.1
2014-Nov-21 21:45 094 6 gusting 9 16.1
2014-Nov-21 21:35 090 8 gusting 11 16.1
2014-Nov-21 21:15 094 8 gusting 11 16.7
2014-Nov-21 21:00 094 6 gusting 8 16.7
2014-Nov-21 20:55 092 6 gusting 7 16.7
2014-Nov-21 20:50 094 5 gusting 8 16.7
2014-Nov-21 20:45 100 6 gusting 8 16.7
2014-Nov-21 20:40 091 6 gusting 8 16.7
2014-Nov-21 20:35 086 5 gusting 8 16.7
2014-Nov-21 20:30 086 6 gusting 8 16.7
2014-Nov-21 20:25 094 6 gusting 8 16.7
2014-Nov-21 20:20 105 6 gusting 8 16.7
2014-Nov-21 20:15 094 6 gusting 8 16.7
2014-Nov-21 20:10 101 5 gusting 9 16.7
2014-Nov-21 20:05 083 6 gusting 9 16.7
2014-Nov-21 20:00 097 6 gusting 11 17.2
2014-Nov-21 19:55 092 7 gusting 11 17.2
2014-Nov-21 19:50 099 6 gusting 11 17.2
2014-Nov-21 19:45 118 6 gusting 11 17.2
2014-Nov-21 19:40 124 7 gusting 11 17.2
2014-Nov-21 19:35 094 7 gusting 11 17.2
2014-Nov-21 19:30 113 8 gusting 13 17.2
2014-Nov-21 19:25 091 9 gusting 12 17.2
2014-Nov-21 19:20 086 9 gusting 12 17.2
2014-Nov-21 19:15 108 8 gusting 12 17.2
2014-Nov-21 19:10 083 7 gusting 11 17.2
2014-Nov-21 19:05 088 7 gusting 11 17.2
2014-Nov-21 19:00 091 6 gusting 10 17.2
2014-Nov-21 18:55 096 8 gusting 13 17.2
2014-Nov-21 18:50 093 9 gusting 13 17.8
2014-Nov-21 18:45 087 7 gusting 12 17.8
2014-Nov-21 18:30 101 6 gusting 9 17.8
2014-Nov-21 18:15 069 4 gusting 7 17.8
2014-Nov-21 18:00 090 6 gusting 9 17.8
2014-Nov-21 17:55 088 5 gusting 9 17.8
2014-Nov-21 17:50 103 6 gusting 9 17.8
2014-Nov-21 17:45 092 6 gusting 11 17.8
2014-Nov-21 17:30 088 7 gusting 10 17.8
2014-Nov-21 17:15 092 7 gusting 9 18.3
2014-Nov-21 17:00 082 7 gusting 9 18.3
2014-Nov-21 16:55 088 6 gusting 9 18.3
2014-Nov-21 16:50 109 6 gusting 9 18.3
2014-Nov-21 16:45 088 6 gusting 8 18.3
2014-Nov-21 16:30 097 6 gusting 11 18.3
2014-Nov-21 16:20 086 7 gusting 11 18.3
2014-Nov-21 16:00 098 7 gusting 12 18.9
2014-Nov-21 15:55 092 6 gusting 12 18.9
2014-Nov-21 15:50 094 6 gusting 11 18.9
2014-Nov-21 15:45 101 7 gusting 11 18.9
2014-Nov-21 15:30 076 6 gusting 11 19.4
2014-Nov-21 15:15 093 6 gusting 12 20.0
2014-Nov-21 15:00 067 5 gusting 10 19.4
2014-Nov-21 14:55 061 5 gusting 10 19.4
2014-Nov-21 14:50 068 6 gusting 8 19.4
2014-Nov-21 14:45 080 4 gusting 8 19.4
2014-Nov-21 14:30 053 6 gusting 13 19.4
2014-Nov-21 14:15 069 5 gusting 8 18.9
2014-Nov-21 14:00 073 6 gusting 11 19.4
2014-Nov-21 13:55 061 2 gusting 6 19.4
2014-Nov-21 13:50 090 5 gusting 6 19.4
2014-Nov-21 13:45 106 19.4
2014-Nov-21 13:30 078 2 gusting 6 20.0
2014-Nov-21 13:15 091 3 gusting 8 19.4
2014-Nov-21 13:00 083 4 gusting 8 19.4
2014-Nov-21 12:55 092 6 gusting 8 18.9
2014-Nov-21 12:50 107 4 gusting 8 18.9
2014-Nov-21 12:45 085 5 gusting 8 18.3
2014-Nov-21 12:30 138 5 gusting 11 18.9
2014-Nov-21 12:15 103 8 gusting 12 18.3
2014-Nov-21 12:00 094 9 gusting 12 18.3
2014-Nov-21 11:45 091 7 gusting 11 18.3
2014-Nov-21 11:35 090 9 gusting 14 18.3
2014-Nov-21 11:20 082 11 gusting 15 18.3
2014-Nov-21 11:00 093 11 gusting 14 17.2
2014-Nov-21 10:55 090 9 gusting 14 17.2
2014-Nov-21 10:50 092 11 gusting 14 17.2
2014-Nov-21 10:45 109 10 gusting 15 17.2
2014-Nov-21 10:30 111 12 gusting 19 16.7
2014-Nov-21 10:15 096 9 gusting 15 16.7
2014-Nov-21 10:00 092 8 gusting 16 16.7
2014-Nov-21 09:45 082 13 gusting 20 16.1
2014-Nov-21 09:30 095 15 gusting 19 15.6
2014-Nov-21 09:15 091 11 gusting 19 15.6
2014-Nov-21 09:00 096 13 gusting 16 15.0
2014-Nov-21 08:55 087 13 gusting 16 15.0
2014-Nov-21 08:50 106 13 gusting 16 14.4
2014-Nov-21 08:45 123 11 gusting 16 14.4
2014-Nov-21 08:35 097 13 gusting 18 14.4
2014-Nov-21 08:15 097 13 gusting 19 14.4
2014-Nov-21 08:00 088 15 gusting 24 13.9
2014-Nov-21 07:50 094 16 gusting 21 13.9
2014-Nov-21 07:45 090 15 gusting 19 13.3
2014-Nov-21 07:30 090 14 gusting 18 13.3
2014-Nov-21 07:15 093 12 gusting 14 13.3
2014-Nov-21 07:00 095 12 gusting 15 13.3
2014-Nov-21 06:55 090 13 gusting 15 13.3
2014-Nov-21 06:50 101 11 gusting 13 13.3
2014-Nov-21 06:45 102 10 gusting 14 13.9
2014-Nov-20 23:05 101 5 gusting 6 15.6
2014-Nov-20 22:55 105 3 gusting 6 15.0
2014-Nov-20 22:50 105 4 gusting 6 15.0
2014-Nov-20 22:45 149 1 gusting 12 15.0
2014-Nov-20 22:30 105 7 gusting 11 15.6
2014-Nov-20 22:15 100 7 gusting 11 15.6
2014-Nov-20 22:00 100 6 gusting 11 15.6
2014-Nov-20 21:55 086 7 gusting 14 15.6
2014-Nov-20 21:50 092 9 gusting 14 15.6
2014-Nov-20 21:45 094 7 gusting 12 15.0
2014-Nov-20 21:35 094 7 gusting 11 15.6
2014-Nov-20 21:15 084 8 gusting 12 15.6
2014-Nov-20 21:05 113 6 gusting 12 15.0
2014-Nov-20 20:55 088 6 gusting 13 15.0
2014-Nov-20 20:50 102 8 gusting 12 15.0
2014-Nov-20 20:45 076 8 gusting 12 15.0
2014-Nov-20 20:30 090 8 gusting 13 14.4
2014-Nov-20 20:15 092 8 gusting 13 14.4
2014-Nov-20 20:00 091 10 gusting 13 14.4
2014-Nov-20 19:55 097 10 gusting 13 14.4
2014-Nov-20 19:50 092 9 gusting 13 14.4
2014-Nov-20 19:45 112 9 gusting 16 14.4
2014-Nov-20 19:30 102 11 gusting 19 15.0
2014-Nov-20 19:20 090 12 gusting 18 15.0
2014-Nov-20 19:00 105 13 gusting 22 15.0
2014-Nov-20 18:55 102 15 gusting 22 15.0
2014-Nov-20 18:50 107 14 gusting 19 15.0
2014-Nov-20 18:45 101 11 gusting 16 15.0
2014-Nov-20 18:30 157 12 gusting 19 15.6
2014-Nov-20 18:20 150 12 gusting 17 16.1
2014-Nov-20 18:05 128 10 gusting 15 15.6
2014-Nov-20 17:55 123 11 gusting 14 15.0
2014-Nov-20 17:50 116 10 gusting 14 15.0
2014-Nov-20 17:45 117 9 gusting 15 15.0
2014-Nov-20 17:30 096 8 gusting 15 15.0
2014-Nov-20 17:15 123 12 gusting 19 15.0
2014-Nov-20 17:00 098 11 gusting 16 14.4
2014-Nov-20 16:50 121 8 gusting 13 15.0
2014-Nov-20 16:30 094 10 gusting 14 15.0
2014-Nov-20 16:15 124 9 gusting 14 15.6
2014-Nov-20 16:00 122 9 gusting 15 15.6
2014-Nov-20 15:55 124 10 gusting 15 15.6
2014-Nov-20 15:50 120 7 gusting 13 15.6
2014-Nov-20 15:45 134 8 gusting 13 15.6
2014-Nov-20 15:30 126 10 gusting 16 16.1
2014-Nov-20 15:20 152 10 gusting 16 16.1
2014-Nov-20 15:00 133 8 gusting 16 16.1
2014-Nov-20 14:55 156 11 gusting 16 16.1
2014-Nov-20 14:50 151 7 gusting 14 16.1
2014-Nov-20 14:45 142 8 gusting 17 16.1
2014-Nov-20 14:30 134 6 gusting 12 16.1
2014-Nov-20 14:20 121 8 gusting 16 16.1
2014-Nov-20 14:00 154 11 gusting 17 16.7
2014-Nov-20 13:55 144 10 gusting 15 16.7
2014-Nov-20 13:50 175 7 gusting 16 17.2
2014-Nov-20 13:45 128 12 gusting 17 17.2
2014-Nov-20 13:35 156 10 gusting 14 17.2
2014-Nov-20 13:15 155 11 gusting 14 17.2
2014-Nov-20 13:00 131 9 gusting 18 16.7
2014-Nov-20 12:50 115 7 gusting 13 17.2
2014-Nov-20 12:35 144 6 gusting 13 17.2
2014-Nov-20 12:15 143 11 gusting 21 17.2
2014-Nov-20 12:00 176 6 gusting 15 16.7
2014-Nov-20 11:55 169 7 gusting 15 16.7
2014-Nov-20 11:50 148 6 gusting 13 16.7
2014-Nov-20 11:45 138 6 gusting 13 16.7
2014-Nov-20 11:35 219 11 gusting 14 16.1
2014-Nov-20 11:15 144 9 gusting 16 15.6
2014-Nov-20 11:00 153 7 gusting 21 15.6
2014-Nov-20 10:55 167 13 gusting 18 15.6
2014-Nov-20 10:50 135 10 gusting 22 15.6
2014-Nov-20 10:45 123 10 gusting 22 15.6
2014-Nov-20 10:30 120 13 gusting 19 15.6
2014-Nov-20 10:15 129 7 gusting 15 15.6
2014-Nov-20 10:00 146 8 gusting 15 15.0
2014-Nov-20 09:55 126 9 gusting 15 15.0
2014-Nov-20 09:50 140 8 gusting 15 15.0
2014-Nov-20 09:45 140 10 gusting 18 15.0
2014-Nov-20 09:35 121 10 gusting 19 15.0
2014-Nov-20 09:15 132 9 gusting 19 15.6
2014-Nov-20 09:00 154 4 gusting 12 15.0
2014-Nov-20 08:55 141 7 gusting 13 15.0
2014-Nov-20 08:50 133 7 gusting 13 15.0
2014-Nov-20 08:45 126 6 gusting 11 15.0
2014-Nov-20 08:30 122 6 gusting 11 15.6
2014-Nov-20 08:15 143 7 gusting 15 15.6
2014-Nov-20 08:00 109 11 gusting 18 16.1
2014-Nov-20 07:55 121 11 gusting 18 16.1
2014-Nov-20 07:50 100 8 gusting 18 16.7
2014-Nov-20 07:45 092 11 gusting 16 16.7
2014-Nov-20 07:30 118 8 gusting 13 16.7
2014-Nov-20 07:15 115 8 gusting 15 16.7
2014-Nov-20 07:00 128 9 gusting 16 16.7
2014-Nov-20 06:55 128 8 gusting 14 16.7
2014-Nov-20 06:50 103 6 gusting 13 16.7
2014-Nov-20 06:45 119 6 gusting 13 16.7
2014-Nov-20 06:35 097 6 gusting 12 16.7
2014-Nov-20 06:20 114 7 gusting 11 17.2
2014-Nov-20 06:00 123 6 gusting 13 17.2
2014-Nov-20 05:45 116 9 gusting 14 17.2
2014-Nov-20 05:30 124 6 gusting 12 17.2
2014-Nov-20 05:15 132 6 gusting 10 17.2
2014-Nov-20 05:00 119 6 gusting 12 17.2
2014-Nov-20 04:55 126 6 gusting 12 17.2
2014-Nov-20 04:50 104 5 gusting 11 17.2
2014-Nov-20 04:45 113 6 gusting 13 17.2
2014-Nov-20 04:40 127 7 gusting 13 17.2
2014-Nov-20 04:35 097 6 gusting 12 17.2
2014-Nov-20 04:30 100 6 gusting 12 17.2
2014-Nov-20 04:25 107 7 gusting 13 17.2
2014-Nov-20 04:20 101 7 gusting 14 17.2
2014-Nov-20 04:15 105 8 gusting 14 17.2
2014-Nov-20 04:10 105 9 gusting 13 17.2
2014-Nov-20 04:05 123 9 gusting 13 17.2
2014-Nov-20 04:00 121 8 gusting 13 17.2
2014-Nov-20 03:55 121 8 gusting 13 17.2
2014-Nov-20 03:50 130 8 gusting 13 17.2
2014-Nov-20 03:45 134 7 gusting 13 17.2
2014-Nov-20 03:30 121 9 gusting 14 17.8
2014-Nov-20 03:15 131 6 gusting 14 17.8
2014-Nov-20 03:00 165 7 gusting 13 17.8